sensor_id;sensor_type;location;lat;lon;timestamp;P1;durP1;ratioP1;P2;durP2;ratioP2
13985;SDS011;7067;51.832;8.296;2023-04-24T00:02:01;1.15;;;0.50;;
13985;SDS011;7067;51.832;8.296;2023-04-24T00:04:27;1.10;;;0.70;;
13985;SDS011;7067;51.832;8.296;2023-04-24T00:06:52;1.05;;;0.47;;
13985;SDS011;7067;51.832;8.296;2023-04-24T00:09:22;0.50;;;0.50;;
13985;SDS011;7067;51.832;8.296;2023-04-24T00:11:47;0.52;;;0.52;;
13985;SDS011;7067;51.832;8.296;2023-04-24T00:14:13;2.00;;;0.60;;
13985;SDS011;7067;51.832;8.296;2023-04-24T00:16:38;0.60;;;0.57;;
13985;SDS011;7067;51.832;8.296;2023-04-24T00:19:03;1.35;;;0.85;;
13985;SDS011;7067;51.832;8.296;2023-04-24T00:21:30;2.83;;;0.68;;
13985;SDS011;7067;51.832;8.296;2023-04-24T00:23:57;1.85;;;1.02;;
13985;SDS011;7067;51.832;8.296;2023-04-24T00:26:23;1.52;;;0.65;;
13985;SDS011;7067;51.832;8.296;2023-04-24T00:28:48;0.73;;;0.55;;
13985;SDS011;7067;51.832;8.296;2023-04-24T00:31:13;2.00;;;0.80;;
13985;SDS011;7067;51.832;8.296;2023-04-24T00:33:39;0.73;;;0.60;;
13985;SDS011;7067;51.832;8.296;2023-04-24T00:36:04;1.35;;;0.52;;
13985;SDS011;7067;51.832;8.296;2023-04-24T00:38:30;0.70;;;0.70;;
13985;SDS011;7067;51.832;8.296;2023-04-24T00:40:56;0.80;;;0.70;;
13985;SDS011;7067;51.832;8.296;2023-04-24T00:43:21;1.75;;;0.55;;
13985;SDS011;7067;51.832;8.296;2023-04-24T00:45:46;0.70;;;0.70;;
13985;SDS011;7067;51.832;8.296;2023-04-24T00:48:12;0.82;;;0.60;;
13985;SDS011;7067;51.832;8.296;2023-04-24T00:50:37;0.88;;;0.60;;
13985;SDS011;7067;51.832;8.296;2023-04-24T00:53:03;1.17;;;0.77;;
13985;SDS011;7067;51.832;8.296;2023-04-24T00:55:28;0.73;;;0.73;;
13985;SDS011;7067;51.832;8.296;2023-04-24T00:57:54;0.57;;;0.57;;
13985;SDS011;7067;51.832;8.296;2023-04-24T01:00:19;0.52;;;0.40;;
13985;SDS011;7067;51.832;8.296;2023-04-24T01:02:45;0.52;;;0.52;;
13985;SDS011;7067;51.832;8.296;2023-04-24T01:05:11;1.15;;;0.77;;
13985;SDS011;7067;51.832;8.296;2023-04-24T01:07:38;2.05;;;0.60;;
13985;SDS011;7067;51.832;8.296;2023-04-24T01:10:04;0.68;;;0.68;;
13985;SDS011;7067;51.832;8.296;2023-04-24T01:12:29;0.65;;;0.65;;
13985;SDS011;7067;51.832;8.296;2023-04-24T01:14:55;0.90;;;0.90;;
13985;SDS011;7067;51.832;8.296;2023-04-24T01:17:21;0.50;;;0.50;;
13985;SDS011;7067;51.832;8.296;2023-04-24T01:19:47;2.00;;;0.60;;
13985;SDS011;7067;51.832;8.296;2023-04-24T01:22:13;3.90;;;0.98;;
13985;SDS011;7067;51.832;8.296;2023-04-24T01:24:39;0.68;;;0.50;;
13985;SDS011;7067;51.832;8.296;2023-04-24T01:27:05;0.55;;;0.40;;
13985;SDS011;7067;51.832;8.296;2023-04-24T01:29:30;1.88;;;0.40;;
13985;SDS011;7067;51.832;8.296;2023-04-24T01:31:56;0.40;;;0.38;;
13985;SDS011;7067;51.832;8.296;2023-04-24T01:34:23;0.90;;;0.60;;
13985;SDS011;7067;51.832;8.296;2023-04-24T01:36:48;0.47;;;0.47;;
13985;SDS011;7067;51.832;8.296;2023-04-24T01:39:15;0.60;;;0.60;;
13985;SDS011;7067;51.832;8.296;2023-04-24T01:41:41;0.57;;;0.50;;
13985;SDS011;7067;51.832;8.296;2023-04-24T01:44:07;1.75;;;0.57;;
13985;SDS011;7067;51.832;8.296;2023-04-24T01:46:32;0.30;;;0.30;;
13985;SDS011;7067;51.832;8.296;2023-04-24T01:48:59;1.38;;;0.63;;
13985;SDS011;7067;51.832;8.296;2023-04-24T01:51:25;2.15;;;0.47;;
13985;SDS011;7067;51.832;8.296;2023-04-24T01:53:50;0.95;;;0.40;;
13985;SDS011;7067;51.832;8.296;2023-04-24T01:56:16;2.17;;;0.80;;
13985;SDS011;7067;51.832;8.296;2023-04-24T01:58:41;0.65;;;0.65;;
13985;SDS011;7067;51.832;8.296;2023-04-24T02:01:08;0.80;;;0.80;;
13985;SDS011;7067;51.832;8.296;2023-04-24T02:03:33;1.75;;;0.70;;
13985;SDS011;7067;51.832;8.296;2023-04-24T02:05:58;0.90;;;0.80;;
13985;SDS011;7067;51.832;8.296;2023-04-24T02:08:24;1.08;;;0.68;;
13985;SDS011;7067;51.832;8.296;2023-04-24T02:10:49;2.55;;;0.93;;
13985;SDS011;7067;51.832;8.296;2023-04-24T02:13:14;0.70;;;0.70;;
13985;SDS011;7067;51.832;8.296;2023-04-24T02:15:40;1.30;;;0.60;;
13985;SDS011;7067;51.832;8.296;2023-04-24T02:18:05;1.00;;;0.75;;
13985;SDS011;7067;51.832;8.296;2023-04-24T02:20:31;0.93;;;0.80;;
13985;SDS011;7067;51.832;8.296;2023-04-24T02:22:59;0.77;;;0.77;;
13985;SDS011;7067;51.832;8.296;2023-04-24T02:25:24;1.05;;;0.80;;
13985;SDS011;7067;51.832;8.296;2023-04-24T02:27:50;1.50;;;0.80;;
13985;SDS011;7067;51.832;8.296;2023-04-24T02:30:15;1.83;;;0.90;;
13985;SDS011;7067;51.832;8.296;2023-04-24T02:32:40;0.95;;;0.82;;
13985;SDS011;7067;51.832;8.296;2023-04-24T02:35:06;0.65;;;0.65;;
13985;SDS011;7067;51.832;8.296;2023-04-24T02:37:31;1.73;;;0.82;;
13985;SDS011;7067;51.832;8.296;2023-04-24T02:39:57;1.48;;;0.85;;
13985;SDS011;7067;51.832;8.296;2023-04-24T02:42:22;2.92;;;0.85;;
13985;SDS011;7067;51.832;8.296;2023-04-24T02:44:47;1.40;;;1.10;;
13985;SDS011;7067;51.832;8.296;2023-04-24T02:47:12;0.95;;;0.77;;
13985;SDS011;7067;51.832;8.296;2023-04-24T02:49:38;2.25;;;0.88;;
13985;SDS011;7067;51.832;8.296;2023-04-24T02:52:03;0.95;;;0.80;;
13985;SDS011;7067;51.832;8.296;2023-04-24T02:54:28;1.10;;;0.80;;
13985;SDS011;7067;51.832;8.296;2023-04-24T02:56:54;2.35;;;0.90;;
13985;SDS011;7067;51.832;8.296;2023-04-24T02:59:20;1.38;;;0.90;;
13985;SDS011;7067;51.832;8.296;2023-04-24T03:01:45;0.73;;;0.73;;
13985;SDS011;7067;51.832;8.296;2023-04-24T03:04:10;3.30;;;0.60;;
13985;SDS011;7067;51.832;8.296;2023-04-24T03:06:36;1.05;;;0.95;;
13985;SDS011;7067;51.832;8.296;2023-04-24T03:09:01;1.00;;;0.88;;
13985;SDS011;7067;51.832;8.296;2023-04-24T03:11:28;0.73;;;0.73;;
13985;SDS011;7067;51.832;8.296;2023-04-24T03:13:53;0.90;;;0.55;;
13985;SDS011;7067;51.832;8.296;2023-04-24T03:16:19;0.68;;;0.60;;
13985;SDS011;7067;51.832;8.296;2023-04-24T03:18:44;1.55;;;0.70;;
13985;SDS011;7067;51.832;8.296;2023-04-24T03:21:10;5.78;;;0.98;;
13985;SDS011;7067;51.832;8.296;2023-04-24T03:23:36;1.63;;;0.88;;
13985;SDS011;7067;51.832;8.296;2023-04-24T03:26:02;1.05;;;0.50;;
13985;SDS011;7067;51.832;8.296;2023-04-24T03:28:27;0.70;;;0.70;;
13985;SDS011;7067;51.832;8.296;2023-04-24T03:30:52;0.82;;;0.82;;
13985;SDS011;7067;51.832;8.296;2023-04-24T03:33:18;1.00;;;0.80;;
13985;SDS011;7067;51.832;8.296;2023-04-24T03:35:43;2.05;;;1.20;;
13985;SDS011;7067;51.832;8.296;2023-04-24T03:38:08;4.15;;;1.48;;
13985;SDS011;7067;51.832;8.296;2023-04-24T03:40:34;1.27;;;1.17;;
13985;SDS011;7067;51.832;8.296;2023-04-24T03:42:59;2.83;;;1.33;;
13985;SDS011;7067;51.832;8.296;2023-04-24T03:45:24;1.48;;;1.40;;
13985;SDS011;7067;51.832;8.296;2023-04-24T03:47:50;1.65;;;1.30;;
13985;SDS011;7067;51.832;8.296;2023-04-24T03:50:15;2.08;;;1.45;;
13985;SDS011;7067;51.832;8.296;2023-04-24T03:52:40;1.27;;;1.25;;
13985;SDS011;7067;51.832;8.296;2023-04-24T03:55:06;1.52;;;1.42;;
13985;SDS011;7067;51.832;8.296;2023-04-24T03:57:31;3.30;;;1.30;;
13985;SDS011;7067;51.832;8.296;2023-04-24T03:59:57;1.60;;;1.50;;
13985;SDS011;7067;51.832;8.296;2023-04-24T04:02:22;1.65;;;1.55;;
13985;SDS011;7067;51.832;8.296;2023-04-24T04:04:47;3.15;;;1.30;;
13985;SDS011;7067;51.832;8.296;2023-04-24T04:07:13;1.73;;;1.63;;
13985;SDS011;7067;51.832;8.296;2023-04-24T04:09:38;1.60;;;1.50;;
13985;SDS011;7067;51.832;8.296;2023-04-24T04:12:03;2.22;;;1.48;;
13985;SDS011;7067;51.832;8.296;2023-04-24T04:14:29;1.48;;;1.38;;
13985;SDS011;7067;51.832;8.296;2023-04-24T04:16:54;1.63;;;1.52;;
13985;SDS011;7067;51.832;8.296;2023-04-24T04:19:20;2.67;;;2.25;;
13985;SDS011;7067;51.832;8.296;2023-04-24T04:21:45;3.15;;;2.95;;
13985;SDS011;7067;51.832;8.296;2023-04-24T04:24:11;3.63;;;3.40;;
13985;SDS011;7067;51.832;8.296;2023-04-24T04:26:36;5.22;;;3.55;;
13985;SDS011;7067;51.832;8.296;2023-04-24T04:29:02;3.67;;;3.47;;
13985;SDS011;7067;51.832;8.296;2023-04-24T04:31:28;3.75;;;3.20;;
13985;SDS011;7067;51.832;8.296;2023-04-24T04:33:54;3.35;;;3.10;;
13985;SDS011;7067;51.832;8.296;2023-04-24T04:36:19;4.60;;;4.25;;
13985;SDS011;7067;51.832;8.296;2023-04-24T04:38:45;4.72;;;4.35;;
13985;SDS011;7067;51.832;8.296;2023-04-24T04:41:10;6.30;;;5.78;;
13985;SDS011;7067;51.832;8.296;2023-04-24T04:43:35;6.07;;;5.68;;
13985;SDS011;7067;51.832;8.296;2023-04-24T04:46:01;7.68;;;7.03;;
13985;SDS011;7067;51.832;8.296;2023-04-24T04:48:28;8.15;;;7.63;;
13985;SDS011;7067;51.832;8.296;2023-04-24T04:50:53;8.30;;;7.70;;
13985;SDS011;7067;51.832;8.296;2023-04-24T04:53:19;8.98;;;8.18;;
13985;SDS011;7067;51.832;8.296;2023-04-24T04:55:44;10.40;;;9.45;;
13985;SDS011;7067;51.832;8.296;2023-04-24T04:58:11;11.95;;;10.93;;
13985;SDS011;7067;51.832;8.296;2023-04-24T05:00:36;12.63;;;11.50;;
13985;SDS011;7067;51.832;8.296;2023-04-24T05:03:02;54.42;;;12.73;;
13985;SDS011;7067;51.832;8.296;2023-04-24T05:05:28;12.63;;;11.57;;
13985;SDS011;7067;51.832;8.296;2023-04-24T05:07:53;13.55;;;12.25;;
13985;SDS011;7067;51.832;8.296;2023-04-24T05:10:19;14.32;;;12.48;;
13985;SDS011;7067;51.832;8.296;2023-04-24T05:12:44;14.43;;;13.15;;
13985;SDS011;7067;51.832;8.296;2023-04-24T05:15:09;15.25;;;13.68;;
13985;SDS011;7067;51.832;8.296;2023-04-24T05:17:35;14.50;;;13.20;;
13985;SDS011;7067;51.832;8.296;2023-04-24T05:20:01;15.48;;;13.70;;
13985;SDS011;7067;51.832;8.296;2023-04-24T05:22:29;15.48;;;13.95;;
13985;SDS011;7067;51.832;8.296;2023-04-24T05:24:55;15.68;;;14.25;;
13985;SDS011;7067;51.832;8.296;2023-04-24T05:27:20;14.93;;;13.50;;
13985;SDS011;7067;51.832;8.296;2023-04-24T05:29:45;15.43;;;13.93;;
13985;SDS011;7067;51.832;8.296;2023-04-24T05:32:11;15.02;;;13.43;;
13985;SDS011;7067;51.832;8.296;2023-04-24T05:34:36;15.40;;;14.00;;
13985;SDS011;7067;51.832;8.296;2023-04-24T05:37:02;15.23;;;13.88;;
13985;SDS011;7067;51.832;8.296;2023-04-24T05:39:27;15.18;;;13.07;;
13985;SDS011;7067;51.832;8.296;2023-04-24T05:41:53;15.52;;;14.02;;
13985;SDS011;7067;51.832;8.296;2023-04-24T05:44:18;14.77;;;13.40;;
13985;SDS011;7067;51.832;8.296;2023-04-24T05:46:44;14.18;;;12.80;;
13985;SDS011;7067;51.832;8.296;2023-04-24T05:49:09;18.67;;;14.15;;
13985;SDS011;7067;51.832;8.296;2023-04-24T05:51:35;14.88;;;13.52;;
13985;SDS011;7067;51.832;8.296;2023-04-24T05:54:00;15.75;;;14.35;;
13985;SDS011;7067;51.832;8.296;2023-04-24T05:56:26;14.07;;;12.77;;
13985;SDS011;7067;51.832;8.296;2023-04-24T05:58:52;14.68;;;13.43;;
13985;SDS011;7067;51.832;8.296;2023-04-24T06:01:17;15.15;;;13.38;;
13985;SDS011;7067;51.832;8.296;2023-04-24T06:03:43;15.65;;;14.10;;
13985;SDS011;7067;51.832;8.296;2023-04-24T06:06:08;14.98;;;13.63;;
13985;SDS011;7067;51.832;8.296;2023-04-24T06:08:36;16.95;;;13.55;;
13985;SDS011;7067;51.832;8.296;2023-04-24T06:11:02;14.45;;;13.15;;
13985;SDS011;7067;51.832;8.296;2023-04-24T06:13:27;15.95;;;13.55;;
13985;SDS011;7067;51.832;8.296;2023-04-24T06:15:53;14.57;;;13.10;;
13985;SDS011;7067;51.832;8.296;2023-04-24T06:18:18;12.63;;;11.52;;
13985;SDS011;7067;51.832;8.296;2023-04-24T06:20:44;13.55;;;12.27;;
13985;SDS011;7067;51.832;8.296;2023-04-24T06:23:10;14.95;;;13.50;;
13985;SDS011;7067;51.832;8.296;2023-04-24T06:25:35;14.23;;;13.02;;
13985;SDS011;7067;51.832;8.296;2023-04-24T06:28:01;14.95;;;13.68;;
13985;SDS011;7067;51.832;8.296;2023-04-24T06:30:27;14.10;;;12.73;;
13985;SDS011;7067;51.832;8.296;2023-04-24T06:32:53;15.38;;;13.93;;
13985;SDS011;7067;51.832;8.296;2023-04-24T06:35:18;16.90;;;15.18;;
13985;SDS011;7067;51.832;8.296;2023-04-24T06:37:43;15.85;;;14.32;;
13985;SDS011;7067;51.832;8.296;2023-04-24T06:40:09;15.07;;;13.75;;
13985;SDS011;7067;51.832;8.296;2023-04-24T06:42:35;13.63;;;12.32;;
13985;SDS011;7067;51.832;8.296;2023-04-24T06:45:00;14.15;;;12.95;;
13985;SDS011;7067;51.832;8.296;2023-04-24T06:47:26;13.18;;;12.07;;
13985;SDS011;7067;51.832;8.296;2023-04-24T06:49:51;15.45;;;12.55;;
13985;SDS011;7067;51.832;8.296;2023-04-24T06:52:17;14.40;;;13.07;;
13985;SDS011;7067;51.832;8.296;2023-04-24T06:54:43;13.70;;;12.30;;
13985;SDS011;7067;51.832;8.296;2023-04-24T06:57:08;13.32;;;12.07;;
13985;SDS011;7067;51.832;8.296;2023-04-24T06:59:35;13.38;;;12.10;;
13985;SDS011;7067;51.832;8.296;2023-04-24T07:02:00;11.45;;;10.43;;
13985;SDS011;7067;51.832;8.296;2023-04-24T07:04:25;10.65;;;9.75;;
13985;SDS011;7067;51.832;8.296;2023-04-24T07:06:51;10.30;;;9.45;;
13985;SDS011;7067;51.832;8.296;2023-04-24T07:09:17;9.80;;;8.80;;
13985;SDS011;7067;51.832;8.296;2023-04-24T07:11:45;7.78;;;7.28;;
13985;SDS011;7067;51.832;8.296;2023-04-24T07:14:11;7.22;;;6.57;;
13985;SDS011;7067;51.832;8.296;2023-04-24T07:16:37;7.15;;;6.65;;
13985;SDS011;7067;51.832;8.296;2023-04-24T07:19:02;7.82;;;7.22;;
13985;SDS011;7067;51.832;8.296;2023-04-24T07:21:27;7.35;;;6.78;;
13985;SDS011;7067;51.832;8.296;2023-04-24T07:23:53;6.93;;;6.40;;
13985;SDS011;7067;51.832;8.296;2023-04-24T07:26:19;8.00;;;6.53;;
13985;SDS011;7067;51.832;8.296;2023-04-24T07:28:45;7.00;;;6.50;;
13985;SDS011;7067;51.832;8.296;2023-04-24T07:31:11;8.52;;;7.82;;
13985;SDS011;7067;51.832;8.296;2023-04-24T07:33:36;7.68;;;6.38;;
13985;SDS011;7067;51.832;8.296;2023-04-24T07:36:02;7.05;;;6.50;;
13985;SDS011;7067;51.832;8.296;2023-04-24T07:38:29;6.45;;;5.85;;
13985;SDS011;7067;51.832;8.296;2023-04-24T07:40:54;6.90;;;6.20;;
13985;SDS011;7067;51.832;8.296;2023-04-24T07:43:20;6.45;;;5.85;;
13985;SDS011;7067;51.832;8.296;2023-04-24T07:45:46;6.10;;;5.60;;
13985;SDS011;7067;51.832;8.296;2023-04-24T07:48:11;6.32;;;5.07;;
13985;SDS011;7067;51.832;8.296;2023-04-24T07:50:39;5.88;;;5.47;;
13985;SDS011;7067;51.832;8.296;2023-04-24T07:53:05;5.00;;;4.60;;
13985;SDS011;7067;51.832;8.296;2023-04-24T07:55:30;5.00;;;4.60;;
13985;SDS011;7067;51.832;8.296;2023-04-24T07:57:56;4.40;;;4.10;;
13985;SDS011;7067;51.832;8.296;2023-04-24T08:00:21;4.50;;;4.20;;
13985;SDS011;7067;51.832;8.296;2023-04-24T08:02:46;4.13;;;3.80;;
13985;SDS011;7067;51.832;8.296;2023-04-24T08:05:12;6.65;;;4.18;;
13985;SDS011;7067;51.832;8.296;2023-04-24T08:07:38;3.45;;;3.25;;
13985;SDS011;7067;51.832;8.296;2023-04-24T08:10:03;3.20;;;3.00;;
13985;SDS011;7067;51.832;8.296;2023-04-24T08:12:29;3.47;;;3.15;;
13985;SDS011;7067;51.832;8.296;2023-04-24T08:14:54;3.10;;;2.80;;
13985;SDS011;7067;51.832;8.296;2023-04-24T08:17:20;2.90;;;2.70;;
13985;SDS011;7067;51.832;8.296;2023-04-24T08:19:45;3.45;;;3.15;;
13985;SDS011;7067;51.832;8.296;2023-04-24T08:22:13;2.30;;;2.20;;
13985;SDS011;7067;51.832;8.296;2023-04-24T08:24:41;3.08;;;2.75;;
13985;SDS011;7067;51.832;8.296;2023-04-24T08:27:07;2.25;;;2.10;;
13985;SDS011;7067;51.832;8.296;2023-04-24T08:29:33;2.75;;;2.65;;
13985;SDS011;7067;51.832;8.296;2023-04-24T08:31:58;2.75;;;2.55;;
13985;SDS011;7067;51.832;8.296;2023-04-24T08:34:24;2.88;;;2.67;;
13985;SDS011;7067;51.832;8.296;2023-04-24T08:36:49;3.00;;;2.78;;
13985;SDS011;7067;51.832;8.296;2023-04-24T08:39:15;2.60;;;2.40;;
13985;SDS011;7067;51.832;8.296;2023-04-24T08:41:41;2.50;;;2.40;;
13985;SDS011;7067;51.832;8.296;2023-04-24T08:44:10;2.30;;;2.10;;
13985;SDS011;7067;51.832;8.296;2023-04-24T08:46:36;3.30;;;2.17;;
13985;SDS011;7067;51.832;8.296;2023-04-24T08:49:02;2.90;;;2.35;;
13985;SDS011;7067;51.832;8.296;2023-04-24T08:51:29;2.55;;;2.38;;
13985;SDS011;7067;51.832;8.296;2023-04-24T08:53:55;2.25;;;1.95;;
13985;SDS011;7067;51.832;8.296;2023-04-24T08:56:22;1.75;;;1.65;;
13985;SDS011;7067;51.832;8.296;2023-04-24T08:58:48;2.83;;;1.55;;
13985;SDS011;7067;51.832;8.296;2023-04-24T09:01:15;2.25;;;1.42;;
13985;SDS011;7067;51.832;8.296;2023-04-24T09:03:41;1.58;;;1.45;;
13985;SDS011;7067;51.832;8.296;2023-04-24T09:06:06;1.30;;;1.20;;
13985;SDS011;7067;51.832;8.296;2023-04-24T09:08:33;2.38;;;1.35;;
13985;SDS011;7067;51.832;8.296;2023-04-24T09:10:58;2.67;;;1.10;;
13985;SDS011;7067;51.832;8.296;2023-04-24T09:13:26;1.48;;;1.33;;
13985;SDS011;7067;51.832;8.296;2023-04-24T09:15:52;1.17;;;1.08;;
13985;SDS011;7067;51.832;8.296;2023-04-24T09:18:17;5.22;;;1.08;;
13985;SDS011;7067;51.832;8.296;2023-04-24T09:21:00;1.02;;;0.88;;
13985;SDS011;7067;51.832;8.296;2023-04-24T09:23:27;1.73;;;0.93;;
13985;SDS011;7067;51.832;8.296;2023-04-24T09:25:54;1.27;;;0.95;;
13985;SDS011;7067;51.832;8.296;2023-04-24T09:28:24;1.40;;;0.85;;
13985;SDS011;7067;51.832;8.296;2023-04-24T09:31:01;2.47;;;0.93;;
13985;SDS011;7067;51.832;8.296;2023-04-24T09:33:27;0.90;;;0.90;;
13985;SDS011;7067;51.832;8.296;2023-04-24T09:35:53;1.63;;;0.60;;
13985;SDS011;7067;51.832;8.296;2023-04-24T09:38:19;1.35;;;0.93;;
13985;SDS011;7067;51.832;8.296;2023-04-24T09:41:02;0.80;;;0.80;;
13985;SDS011;7067;51.832;8.296;2023-04-24T09:43:30;0.60;;;0.60;;
13985;SDS011;7067;51.832;8.296;2023-04-24T09:45:56;2.17;;;0.85;;
13985;SDS011;7067;51.832;8.296;2023-04-24T09:48:30;0.75;;;0.45;;
13985;SDS011;7067;51.832;8.296;2023-04-24T09:50:56;0.90;;;0.40;;
13985;SDS011;7067;51.832;8.296;2023-04-24T09:53:25;0.70;;;0.35;;
13985;SDS011;7067;51.832;8.296;2023-04-24T09:55:51;0.30;;;0.30;;
13985;SDS011;7067;51.832;8.296;2023-04-24T09:58:18;2.45;;;0.47;;
13985;SDS011;7067;51.832;8.296;2023-04-24T10:00:44;0.60;;;0.50;;
13985;SDS011;7067;51.832;8.296;2023-04-24T10:03:10;1.77;;;0.50;;
13985;SDS011;7067;51.832;8.296;2023-04-24T10:05:36;0.80;;;0.80;;
13985;SDS011;7067;51.832;8.296;2023-04-24T10:10:30;0.40;;;0.40;;
13985;SDS011;7067;51.832;8.296;2023-04-24T10:12:56;1.60;;;0.55;;
13985;SDS011;7067;51.832;8.296;2023-04-24T10:15:21;0.40;;;0.40;;
13985;SDS011;7067;51.832;8.296;2023-04-24T10:17:48;0.60;;;0.60;;
13985;SDS011;7067;51.832;8.296;2023-04-24T10:20:17;0.68;;;0.68;;
13985;SDS011;7067;51.832;8.296;2023-04-24T10:22:45;0.30;;;0.30;;
13985;SDS011;7067;51.832;8.296;2023-04-24T10:25:14;0.50;;;0.50;;
13985;SDS011;7067;51.832;8.296;2023-04-24T10:27:41;0.30;;;0.30;;
13985;SDS011;7067;51.832;8.296;2023-04-24T10:30:07;0.57;;;0.35;;
13985;SDS011;7067;51.832;8.296;2023-04-24T10:32:33;0.52;;;0.52;;
13985;SDS011;7067;51.832;8.296;2023-04-24T10:34:58;0.65;;;0.43;;
13985;SDS011;7067;51.832;8.296;2023-04-24T10:37:24;0.40;;;0.40;;
13985;SDS011;7067;51.832;8.296;2023-04-24T10:39:50;1.20;;;0.57;;
13985;SDS011;7067;51.832;8.296;2023-04-24T10:42:19;0.90;;;0.63;;
13985;SDS011;7067;51.832;8.296;2023-04-24T10:44:46;0.55;;;0.55;;
13985;SDS011;7067;51.832;8.296;2023-04-24T10:47:13;0.60;;;0.55;;
13985;SDS011;7067;51.832;8.296;2023-04-24T10:49:39;0.45;;;0.45;;
13985;SDS011;7067;51.832;8.296;2023-04-24T10:52:05;0.60;;;0.60;;
13985;SDS011;7067;51.832;8.296;2023-04-24T10:54:46;0.88;;;0.88;;
13985;SDS011;7067;51.832;8.296;2023-04-24T10:59:44;0.80;;;0.80;;
13985;SDS011;7067;51.832;8.296;2023-04-24T11:02:09;0.77;;;0.75;;
13985;SDS011;7067;51.832;8.296;2023-04-24T11:04:35;1.33;;;1.23;;
13985;SDS011;7067;51.832;8.296;2023-04-24T11:07:02;1.63;;;1.30;;
13985;SDS011;7067;51.832;8.296;2023-04-24T11:09:28;2.35;;;1.85;;
13985;SDS011;7067;51.832;8.296;2023-04-24T11:12:11;1.95;;;1.85;;
13985;SDS011;7067;51.832;8.296;2023-04-24T11:20:02;2.65;;;2.45;;
13985;SDS011;7067;51.832;8.296;2023-04-24T11:22:34;4.15;;;1.42;;
13985;SDS011;7067;51.832;8.296;2023-04-24T11:25:01;2.00;;;1.90;;
13985;SDS011;7067;51.832;8.296;2023-04-24T11:27:30;3.45;;;2.17;;
13985;SDS011;7067;51.832;8.296;2023-04-24T11:35:03;1.70;;;1.60;;
13985;SDS011;7067;51.832;8.296;2023-04-24T11:37:35;1.35;;;1.35;;
13985;SDS011;7067;51.832;8.296;2023-04-24T11:40:11;2.13;;;1.92;;
13985;SDS011;7067;51.832;8.296;2023-04-24T11:42:39;2.30;;;2.03;;
13985;SDS011;7067;51.832;8.296;2023-04-24T11:45:13;2.88;;;2.42;;
13985;SDS011;7067;51.832;8.296;2023-04-24T11:47:48;3.40;;;3.10;;
13985;SDS011;7067;51.832;8.296;2023-04-24T11:50:14;5.03;;;3.70;;
13985;SDS011;7067;51.832;8.296;2023-04-24T11:52:42;52.95;;;5.82;;
13985;SDS011;7067;51.832;8.296;2023-04-24T11:57:39;4.72;;;3.20;;
13985;SDS011;7067;51.832;8.296;2023-04-24T12:00:14;4.85;;;2.45;;
13985;SDS011;7067;51.832;8.296;2023-04-24T12:02:41;1.80;;;1.70;;
13985;SDS011;7067;51.832;8.296;2023-04-24T12:05:06;3.28;;;1.73;;
13985;SDS011;7067;51.832;8.296;2023-04-24T12:07:36;1.73;;;1.63;;
13985;SDS011;7067;51.832;8.296;2023-04-24T12:10:07;2.05;;;1.83;;
13985;SDS011;7067;51.832;8.296;2023-04-24T12:12:34;3.65;;;2.38;;
13985;SDS011;7067;51.832;8.296;2023-04-24T12:14:59;3.80;;;2.80;;
13985;SDS011;7067;51.832;8.296;2023-04-24T12:19:51;5.25;;;3.72;;
13985;SDS011;7067;51.832;8.296;2023-04-24T12:22:17;6.10;;;4.80;;
13985;SDS011;7067;51.832;8.296;2023-04-24T12:27:26;4.30;;;3.97;;
13985;SDS011;7067;51.832;8.296;2023-04-24T12:29:56;4.30;;;3.85;;
13985;SDS011;7067;51.832;8.296;2023-04-24T12:32:23;3.53;;;3.20;;
13985;SDS011;7067;51.832;8.296;2023-04-24T12:34:50;3.65;;;3.35;;
13985;SDS011;7067;51.832;8.296;2023-04-24T12:37:16;91.82;;;11.73;;
13985;SDS011;7067;51.832;8.296;2023-04-24T12:39:57;6.55;;;4.60;;
13985;SDS011;7067;51.832;8.296;2023-04-24T12:42:27;6.97;;;4.88;;
13985;SDS011;7067;51.832;8.296;2023-04-24T12:45:01;9.48;;;5.53;;
13985;SDS011;7067;51.832;8.296;2023-04-24T12:47:28;7.15;;;5.07;;
13985;SDS011;7067;51.832;8.296;2023-04-24T12:49:54;7.82;;;4.82;;
13985;SDS011;7067;51.832;8.296;2023-04-24T12:52:20;14.77;;;6.32;;
13985;SDS011;7067;51.832;8.296;2023-04-24T12:54:47;10.75;;;6.13;;
13985;SDS011;7067;51.832;8.296;2023-04-24T12:57:12;76.50;;;12.98;;
13985;SDS011;7067;51.832;8.296;2023-04-24T12:59:38;10.18;;;5.10;;
13985;SDS011;7067;51.832;8.296;2023-04-24T13:02:04;12.02;;;6.40;;
13985;SDS011;7067;51.832;8.296;2023-04-24T13:04:30;13.98;;;5.32;;
13985;SDS011;7067;51.832;8.296;2023-04-24T13:06:55;9.95;;;5.72;;
13985;SDS011;7067;51.832;8.296;2023-04-24T13:09:20;10.43;;;5.63;;
13985;SDS011;7067;51.832;8.296;2023-04-24T13:11:46;11.38;;;6.03;;
13985;SDS011;7067;51.832;8.296;2023-04-24T13:14:11;11.20;;;6.03;;
13985;SDS011;7067;51.832;8.296;2023-04-24T13:16:37;11.50;;;6.03;;
13985;SDS011;7067;51.832;8.296;2023-04-24T13:19:02;12.73;;;6.57;;
13985;SDS011;7067;51.832;8.296;2023-04-24T13:21:28;16.23;;;8.90;;
13985;SDS011;7067;51.832;8.296;2023-04-24T13:23:55;16.05;;;8.88;;
13985;SDS011;7067;51.832;8.296;2023-04-24T13:26:21;10.65;;;6.50;;
13985;SDS011;7067;51.832;8.296;2023-04-24T13:28:46;10.77;;;5.93;;
13985;SDS011;7067;51.832;8.296;2023-04-24T13:31:11;11.32;;;5.82;;
13985;SDS011;7067;51.832;8.296;2023-04-24T13:33:37;10.30;;;6.53;;
13985;SDS011;7067;51.832;8.296;2023-04-24T13:36:02;15.25;;;5.80;;
13985;SDS011;7067;51.832;8.296;2023-04-24T13:38:27;10.70;;;5.25;;
13985;SDS011;7067;51.832;8.296;2023-04-24T13:40:53;19.98;;;5.68;;
13985;SDS011;7067;51.832;8.296;2023-04-24T13:43:18;10.32;;;5.82;;
13985;SDS011;7067;51.832;8.296;2023-04-24T13:45:44;10.27;;;5.10;;
13985;SDS011;7067;51.832;8.296;2023-04-24T13:48:09;11.15;;;5.22;;
13985;SDS011;7067;51.832;8.296;2023-04-24T13:50:34;12.82;;;5.38;;
13985;SDS011;7067;51.832;8.296;2023-04-24T13:53:00;9.77;;;5.32;;
13985;SDS011;7067;51.832;8.296;2023-04-24T13:55:26;9.20;;;5.82;;
13985;SDS011;7067;51.832;8.296;2023-04-24T13:57:51;9.93;;;5.80;;
13985;SDS011;7067;51.832;8.296;2023-04-24T14:00:20;12.40;;;4.70;;
13985;SDS011;7067;51.832;8.296;2023-04-24T14:02:45;8.70;;;5.15;;
13985;SDS011;7067;51.832;8.296;2023-04-24T14:05:12;12.32;;;4.07;;
13985;SDS011;7067;51.832;8.296;2023-04-24T14:07:39;8.13;;;4.53;;
13985;SDS011;7067;51.832;8.296;2023-04-24T14:10:04;11.63;;;4.13;;
13985;SDS011;7067;51.832;8.296;2023-04-24T14:12:30;56.67;;;7.00;;
13985;SDS011;7067;51.832;8.296;2023-04-24T14:14:55;12.85;;;4.47;;
13985;SDS011;7067;51.832;8.296;2023-04-24T14:17:21;11.23;;;4.25;;
13985;SDS011;7067;51.832;8.296;2023-04-24T14:19:46;12.77;;;3.95;;
13985;SDS011;7067;51.832;8.296;2023-04-24T14:22:12;8.02;;;3.42;;
13985;SDS011;7067;51.832;8.296;2023-04-24T14:24:37;5.53;;;2.90;;
13985;SDS011;7067;51.832;8.296;2023-04-24T14:27:02;6.57;;;3.17;;
13985;SDS011;7067;51.832;8.296;2023-04-24T14:29:28;5.18;;;2.42;;
13985;SDS011;7067;51.832;8.296;2023-04-24T14:31:53;4.55;;;2.25;;
13985;SDS011;7067;51.832;8.296;2023-04-24T14:34:18;5.95;;;2.72;;
13985;SDS011;7067;51.832;8.296;2023-04-24T14:36:44;6.68;;;2.42;;
13985;SDS011;7067;51.832;8.296;2023-04-24T14:39:10;5.35;;;1.92;;
13985;SDS011;7067;51.832;8.296;2023-04-24T14:41:35;5.03;;;2.47;;
13985;SDS011;7067;51.832;8.296;2023-04-24T14:44:02;3.50;;;1.52;;
13985;SDS011;7067;51.832;8.296;2023-04-24T14:46:28;5.97;;;1.98;;
13985;SDS011;7067;51.832;8.296;2023-04-24T14:48:55;2.95;;;1.70;;
13985;SDS011;7067;51.832;8.296;2023-04-24T14:51:21;6.25;;;2.20;;
13985;SDS011;7067;51.832;8.296;2023-04-24T14:53:46;4.55;;;2.35;;
13985;SDS011;7067;51.832;8.296;2023-04-24T14:56:12;4.95;;;1.77;;
13985;SDS011;7067;51.832;8.296;2023-04-24T14:58:38;3.22;;;1.80;;
13985;SDS011;7067;51.832;8.296;2023-04-24T15:01:03;2.72;;;1.60;;
13985;SDS011;7067;51.832;8.296;2023-04-24T15:03:29;6.10;;;2.10;;
13985;SDS011;7067;51.832;8.296;2023-04-24T15:05:54;4.82;;;2.10;;
13985;SDS011;7067;51.832;8.296;2023-04-24T15:08:20;3.80;;;2.13;;
13985;SDS011;7067;51.832;8.296;2023-04-24T15:10:46;3.47;;;2.13;;
13985;SDS011;7067;51.832;8.296;2023-04-24T15:13:12;5.20;;;2.55;;